sensor_id;sensor_type;location;lat;lon;timestamp;P1;durP1;ratioP1;P2;durP2;ratioP2
40515;SDS011;26216;53.724;9.898;2023-04-03T00:00:50;2.20;;;0.88;;
40515;SDS011;26216;53.724;9.898;2023-04-03T00:03:16;1.33;;;0.70;;
40515;SDS011;26216;53.724;9.898;2023-04-03T00:05:43;1.85;;;0.68;;
40515;SDS011;26216;53.724;9.898;2023-04-03T00:08:09;1.70;;;0.70;;
40515;SDS011;26216;53.724;9.898;2023-04-03T00:10:36;2.63;;;1.10;;
40515;SDS011;26216;53.724;9.898;2023-04-03T00:13:02;3.08;;;0.70;;
40515;SDS011;26216;53.724;9.898;2023-04-03T00:15:29;1.98;;;0.88;;
40515;SDS011;26216;53.724;9.898;2023-04-03T00:17:55;2.88;;;1.00;;
40515;SDS011;26216;53.724;9.898;2023-04-03T00:20:22;1.60;;;0.80;;
40515;SDS011;26216;53.724;9.898;2023-04-03T00:22:48;3.65;;;0.70;;
40515;SDS011;26216;53.724;9.898;2023-04-03T00:25:14;2.10;;;0.70;;
40515;SDS011;26216;53.724;9.898;2023-04-03T00:27:40;2.53;;;0.80;;
40515;SDS011;26216;53.724;9.898;2023-04-03T00:30:07;1.35;;;0.70;;
40515;SDS011;26216;53.724;9.898;2023-04-03T00:32:35;2.38;;;0.90;;
40515;SDS011;26216;53.724;9.898;2023-04-03T00:35:01;3.25;;;0.80;;
40515;SDS011;26216;53.724;9.898;2023-04-03T00:37:26;1.65;;;0.75;;
40515;SDS011;26216;53.724;9.898;2023-04-03T00:39:52;0.93;;;0.60;;
40515;SDS011;26216;53.724;9.898;2023-04-03T00:42:18;1.65;;;0.60;;
40515;SDS011;26216;53.724;9.898;2023-04-03T00:47:13;1.65;;;0.70;;
40515;SDS011;26216;53.724;9.898;2023-04-03T00:49:42;1.45;;;0.77;;
40515;SDS011;26216;53.724;9.898;2023-04-03T00:52:10;2.08;;;0.70;;
40515;SDS011;26216;53.724;9.898;2023-04-03T00:54:39;1.80;;;0.68;;
40515;SDS011;26216;53.724;9.898;2023-04-03T00:57:07;2.58;;;0.85;;
40515;SDS011;26216;53.724;9.898;2023-04-03T00:59:34;3.70;;;1.10;;
40515;SDS011;26216;53.724;9.898;2023-04-03T01:02:03;2.83;;;0.93;;
40515;SDS011;26216;53.724;9.898;2023-04-03T01:04:36;2.72;;;0.90;;
40515;SDS011;26216;53.724;9.898;2023-04-03T01:07:08;2.53;;;0.70;;
40515;SDS011;26216;53.724;9.898;2023-04-03T01:09:37;1.55;;;0.65;;
40515;SDS011;26216;53.724;9.898;2023-04-03T01:12:14;1.90;;;0.70;;
40515;SDS011;26216;53.724;9.898;2023-04-03T01:14:43;2.50;;;0.70;;
40515;SDS011;26216;53.724;9.898;2023-04-03T01:17:26;1.40;;;0.70;;
40515;SDS011;26216;53.724;9.898;2023-04-03T01:25:31;1.92;;;0.82;;
40515;SDS011;26216;53.724;9.898;2023-04-03T01:27:57;1.67;;;0.80;;
40515;SDS011;26216;53.724;9.898;2023-04-03T01:30:28;1.52;;;0.70;;
40515;SDS011;26216;53.724;9.898;2023-04-03T01:32:57;2.55;;;0.80;;
40515;SDS011;26216;53.724;9.898;2023-04-03T01:35:23;2.90;;;0.73;;
40515;SDS011;26216;53.724;9.898;2023-04-03T01:37:50;2.60;;;0.80;;
40515;SDS011;26216;53.724;9.898;2023-04-03T01:40:15;1.02;;;0.65;;
40515;SDS011;26216;53.724;9.898;2023-04-03T01:42:41;1.55;;;0.73;;
40515;SDS011;26216;53.724;9.898;2023-04-03T01:45:07;1.65;;;0.75;;
40515;SDS011;26216;53.724;9.898;2023-04-03T01:47:33;2.67;;;0.70;;
40515;SDS011;26216;53.724;9.898;2023-04-03T01:49:59;2.17;;;0.77;;
40515;SDS011;26216;53.724;9.898;2023-04-03T01:52:25;2.70;;;0.80;;
40515;SDS011;26216;53.724;9.898;2023-04-03T01:54:51;1.45;;;0.80;;
40515;SDS011;26216;53.724;9.898;2023-04-03T01:57:17;1.55;;;0.80;;
40515;SDS011;26216;53.724;9.898;2023-04-03T01:59:43;3.10;;;0.80;;
40515;SDS011;26216;53.724;9.898;2023-04-03T02:02:09;0.68;;;0.50;;
40515;SDS011;26216;53.724;9.898;2023-04-03T02:04:37;1.63;;;0.60;;
40515;SDS011;26216;53.724;9.898;2023-04-03T02:07:03;1.90;;;0.70;;
40515;SDS011;26216;53.724;9.898;2023-04-03T02:09:29;2.20;;;0.80;;
40515;SDS011;26216;53.724;9.898;2023-04-03T02:11:55;2.85;;;0.95;;
40515;SDS011;26216;53.724;9.898;2023-04-03T02:14:21;1.35;;;0.60;;
40515;SDS011;26216;53.724;9.898;2023-04-03T02:16:49;2.20;;;0.70;;
40515;SDS011;26216;53.724;9.898;2023-04-03T02:19:15;1.40;;;0.65;;
40515;SDS011;26216;53.724;9.898;2023-04-03T02:21:41;1.85;;;0.73;;
40515;SDS011;26216;53.724;9.898;2023-04-03T02:24:07;1.90;;;0.57;;
40515;SDS011;26216;53.724;9.898;2023-04-03T02:26:33;2.60;;;1.25;;
40515;SDS011;26216;53.724;9.898;2023-04-03T02:28:58;2.15;;;0.73;;
40515;SDS011;26216;53.724;9.898;2023-04-03T02:31:24;2.28;;;0.80;;
40515;SDS011;26216;53.724;9.898;2023-04-03T02:33:50;1.92;;;0.77;;
40515;SDS011;26216;53.724;9.898;2023-04-03T02:36:16;1.45;;;0.73;;
40515;SDS011;26216;53.724;9.898;2023-04-03T02:38:42;1.45;;;0.75;;
40515;SDS011;26216;53.724;9.898;2023-04-03T02:41:09;1.63;;;0.75;;
40515;SDS011;26216;53.724;9.898;2023-04-03T02:43:36;2.03;;;0.68;;
40515;SDS011;26216;53.724;9.898;2023-04-03T02:46:02;2.28;;;0.60;;
40515;SDS011;26216;53.724;9.898;2023-04-03T02:48:29;2.67;;;0.88;;
40515;SDS011;26216;53.724;9.898;2023-04-03T02:50:54;1.70;;;0.80;;
40515;SDS011;26216;53.724;9.898;2023-04-03T02:53:20;2.00;;;0.60;;
40515;SDS011;26216;53.724;9.898;2023-04-03T02:55:47;1.98;;;0.88;;
40515;SDS011;26216;53.724;9.898;2023-04-03T02:58:13;2.90;;;0.80;;
40515;SDS011;26216;53.724;9.898;2023-04-03T03:00:39;3.20;;;0.90;;
40515;SDS011;26216;53.724;9.898;2023-04-03T03:03:05;2.67;;;0.90;;
40515;SDS011;26216;53.724;9.898;2023-04-03T03:05:32;1.73;;;0.90;;
40515;SDS011;26216;53.724;9.898;2023-04-03T03:07:58;2.47;;;0.93;;
40515;SDS011;26216;53.724;9.898;2023-04-03T03:10:27;1.75;;;0.80;;
40515;SDS011;26216;53.724;9.898;2023-04-03T03:15:24;2.53;;;0.70;;
40515;SDS011;26216;53.724;9.898;2023-04-03T03:17:50;1.90;;;0.70;;
40515;SDS011;26216;53.724;9.898;2023-04-03T03:20:16;3.67;;;1.20;;
40515;SDS011;26216;53.724;9.898;2023-04-03T03:22:41;3.20;;;0.88;;
40515;SDS011;26216;53.724;9.898;2023-04-03T03:25:08;3.38;;;1.13;;
40515;SDS011;26216;53.724;9.898;2023-04-03T03:27:34;1.50;;;0.70;;
40515;SDS011;26216;53.724;9.898;2023-04-03T03:30:00;1.73;;;0.73;;
40515;SDS011;26216;53.724;9.898;2023-04-03T03:32:26;2.17;;;0.80;;
40515;SDS011;26216;53.724;9.898;2023-04-03T03:34:51;2.38;;;1.10;;
40515;SDS011;26216;53.724;9.898;2023-04-03T03:37:17;1.55;;;0.63;;
40515;SDS011;26216;53.724;9.898;2023-04-03T03:39:43;2.25;;;0.90;;
40515;SDS011;26216;53.724;9.898;2023-04-03T03:42:09;1.48;;;0.63;;
40515;SDS011;26216;53.724;9.898;2023-04-03T03:44:35;2.30;;;0.90;;
40515;SDS011;26216;53.724;9.898;2023-04-03T03:47:00;2.53;;;0.70;;
40515;SDS011;26216;53.724;9.898;2023-04-03T03:49:26;2.20;;;0.95;;
40515;SDS011;26216;53.724;9.898;2023-04-03T03:51:52;2.55;;;1.00;;
40515;SDS011;26216;53.724;9.898;2023-04-03T03:54:18;2.13;;;0.70;;
40515;SDS011;26216;53.724;9.898;2023-04-03T03:56:44;3.25;;;1.02;;
40515;SDS011;26216;53.724;9.898;2023-04-03T03:59:11;2.97;;;0.80;;
40515;SDS011;26216;53.724;9.898;2023-04-03T04:01:37;1.75;;;0.90;;
40515;SDS011;26216;53.724;9.898;2023-04-03T04:04:03;3.20;;;1.00;;
40515;SDS011;26216;53.724;9.898;2023-04-03T04:06:29;2.28;;;0.75;;
40515;SDS011;26216;53.724;9.898;2023-04-03T04:08:55;2.80;;;0.88;;
40515;SDS011;26216;53.724;9.898;2023-04-03T04:11:21;1.38;;;0.65;;
40515;SDS011;26216;53.724;9.898;2023-04-03T04:13:47;1.45;;;0.70;;
40515;SDS011;26216;53.724;9.898;2023-04-03T04:16:13;1.52;;;1.00;;
40515;SDS011;26216;53.724;9.898;2023-04-03T04:18:39;2.65;;;0.80;;
40515;SDS011;26216;53.724;9.898;2023-04-03T04:21:05;2.40;;;0.80;;
40515;SDS011;26216;53.724;9.898;2023-04-03T04:23:30;1.52;;;0.75;;
40515;SDS011;26216;53.724;9.898;2023-04-03T04:25:56;1.73;;;0.77;;
40515;SDS011;26216;53.724;9.898;2023-04-03T04:28:22;2.65;;;0.90;;
40515;SDS011;26216;53.724;9.898;2023-04-03T04:30:48;2.25;;;0.77;;
40515;SDS011;26216;53.724;9.898;2023-04-03T04:33:14;1.85;;;0.85;;
40515;SDS011;26216;53.724;9.898;2023-04-03T04:35:41;1.73;;;0.75;;
40515;SDS011;26216;53.724;9.898;2023-04-03T04:38:08;1.88;;;0.85;;
40515;SDS011;26216;53.724;9.898;2023-04-03T04:40:34;1.10;;;0.65;;
40515;SDS011;26216;53.724;9.898;2023-04-03T04:43:00;2.03;;;0.80;;
40515;SDS011;26216;53.724;9.898;2023-04-03T04:45:26;1.60;;;0.75;;
40515;SDS011;26216;53.724;9.898;2023-04-03T04:47:54;4.18;;;1.08;;
40515;SDS011;26216;53.724;9.898;2023-04-03T04:50:20;1.55;;;0.88;;
40515;SDS011;26216;53.724;9.898;2023-04-03T04:52:46;2.08;;;0.88;;
40515;SDS011;26216;53.724;9.898;2023-04-03T04:55:12;2.35;;;0.80;;
40515;SDS011;26216;53.724;9.898;2023-04-03T04:57:38;2.30;;;0.70;;
40515;SDS011;26216;53.724;9.898;2023-04-03T05:00:04;1.70;;;0.77;;
40515;SDS011;26216;53.724;9.898;2023-04-03T05:02:30;1.45;;;0.82;;
40515;SDS011;26216;53.724;9.898;2023-04-03T05:04:56;3.08;;;0.90;;
40515;SDS011;26216;53.724;9.898;2023-04-03T05:07:22;2.03;;;0.93;;
40515;SDS011;26216;53.724;9.898;2023-04-03T05:09:49;1.83;;;0.85;;
40515;SDS011;26216;53.724;9.898;2023-04-03T05:12:15;2.22;;;0.88;;
40515;SDS011;26216;53.724;9.898;2023-04-03T05:14:41;2.28;;;0.82;;
40515;SDS011;26216;53.724;9.898;2023-04-03T05:17:07;1.33;;;0.70;;
40515;SDS011;26216;53.724;9.898;2023-04-03T05:19:33;3.53;;;0.90;;
40515;SDS011;26216;53.724;9.898;2023-04-03T05:21:59;2.10;;;0.80;;
40515;SDS011;26216;53.724;9.898;2023-04-03T05:24:25;3.15;;;1.02;;
40515;SDS011;26216;53.724;9.898;2023-04-03T05:26:51;3.38;;;1.17;;
40515;SDS011;26216;53.724;9.898;2023-04-03T05:29:17;1.95;;;1.10;;
40515;SDS011;26216;53.724;9.898;2023-04-03T05:31:43;3.20;;;1.23;;
40515;SDS011;26216;53.724;9.898;2023-04-03T05:34:08;2.08;;;1.17;;
40515;SDS011;26216;53.724;9.898;2023-04-03T05:36:34;2.28;;;0.93;;
40515;SDS011;26216;53.724;9.898;2023-04-03T05:39:00;3.45;;;1.38;;
40515;SDS011;26216;53.724;9.898;2023-04-03T05:41:26;2.40;;;1.13;;
40515;SDS011;26216;53.724;9.898;2023-04-03T05:43:52;2.92;;;1.00;;
40515;SDS011;26216;53.724;9.898;2023-04-03T05:46:18;2.50;;;0.93;;
40515;SDS011;26216;53.724;9.898;2023-04-03T05:48:46;3.08;;;1.20;;
40515;SDS011;26216;53.724;9.898;2023-04-03T05:51:14;2.38;;;1.20;;
40515;SDS011;26216;53.724;9.898;2023-04-03T05:53:44;3.33;;;1.02;;
40515;SDS011;26216;53.724;9.898;2023-04-03T05:56:12;2.75;;;1.13;;
40515;SDS011;26216;53.724;9.898;2023-04-03T05:58:38;3.33;;;1.27;;
40515;SDS011;26216;53.724;9.898;2023-04-03T06:01:04;4.15;;;1.25;;
40515;SDS011;26216;53.724;9.898;2023-04-03T06:03:30;3.28;;;1.63;;
40515;SDS011;26216;53.724;9.898;2023-04-03T06:05:56;4.53;;;1.98;;
40515;SDS011;26216;53.724;9.898;2023-04-03T06:08:22;3.90;;;1.60;;
40515;SDS011;26216;53.724;9.898;2023-04-03T06:10:49;3.58;;;1.80;;
40515;SDS011;26216;53.724;9.898;2023-04-03T06:13:16;4.15;;;2.03;;
40515;SDS011;26216;53.724;9.898;2023-04-03T06:15:42;4.82;;;1.98;;
40515;SDS011;26216;53.724;9.898;2023-04-03T06:18:08;4.93;;;1.98;;
40515;SDS011;26216;53.724;9.898;2023-04-03T06:20:34;2.97;;;1.40;;
40515;SDS011;26216;53.724;9.898;2023-04-03T06:23:00;4.18;;;1.50;;
40515;SDS011;26216;53.724;9.898;2023-04-03T06:25:26;3.65;;;1.73;;
40515;SDS011;26216;53.724;9.898;2023-04-03T06:27:52;4.75;;;1.70;;
40515;SDS011;26216;53.724;9.898;2023-04-03T06:30:20;4.10;;;1.60;;
40515;SDS011;26216;53.724;9.898;2023-04-03T06:32:47;3.33;;;1.60;;
40515;SDS011;26216;53.724;9.898;2023-04-03T06:35:13;4.63;;;1.60;;
40515;SDS011;26216;53.724;9.898;2023-04-03T06:37:39;3.05;;;1.30;;
40515;SDS011;26216;53.724;9.898;2023-04-03T06:40:05;2.97;;;1.23;;
40515;SDS011;26216;53.724;9.898;2023-04-03T06:42:31;4.32;;;1.45;;
40515;SDS011;26216;53.724;9.898;2023-04-03T06:44:57;3.33;;;1.40;;
40515;SDS011;26216;53.724;9.898;2023-04-03T06:47:23;4.93;;;1.70;;
40515;SDS011;26216;53.724;9.898;2023-04-03T06:49:49;2.83;;;1.60;;
40515;SDS011;26216;53.724;9.898;2023-04-03T06:52:15;5.15;;;1.88;;
40515;SDS011;26216;53.724;9.898;2023-04-03T06:54:41;4.55;;;1.80;;
40515;SDS011;26216;53.724;9.898;2023-04-03T06:57:07;3.13;;;1.60;;
40515;SDS011;26216;53.724;9.898;2023-04-03T06:59:33;4.40;;;1.77;;
40515;SDS011;26216;53.724;9.898;2023-04-03T07:02:00;4.72;;;2.00;;
40515;SDS011;26216;53.724;9.898;2023-04-03T07:04:26;3.55;;;1.65;;
40515;SDS011;26216;53.724;9.898;2023-04-03T07:06:52;3.15;;;1.67;;
40515;SDS011;26216;53.724;9.898;2023-04-03T07:09:18;4.07;;;1.92;;
40515;SDS011;26216;53.724;9.898;2023-04-03T07:11:44;4.50;;;1.90;;
40515;SDS011;26216;53.724;9.898;2023-04-03T07:14:10;4.88;;;2.00;;
40515;SDS011;26216;53.724;9.898;2023-04-03T07:16:36;4.65;;;1.60;;
40515;SDS011;26216;53.724;9.898;2023-04-03T07:19:02;4.80;;;1.70;;
40515;SDS011;26216;53.724;9.898;2023-04-03T07:21:28;5.03;;;1.65;;
40515;SDS011;26216;53.724;9.898;2023-04-03T07:23:55;5.43;;;1.60;;
40515;SDS011;26216;53.724;9.898;2023-04-03T07:26:21;4.80;;;1.55;;
40515;SDS011;26216;53.724;9.898;2023-04-03T07:28:49;2.90;;;1.40;;
40515;SDS011;26216;53.724;9.898;2023-04-03T07:31:15;3.13;;;1.48;;
40515;SDS011;26216;53.724;9.898;2023-04-03T07:33:42;4.82;;;1.60;;
40515;SDS011;26216;53.724;9.898;2023-04-03T07:36:10;4.35;;;1.90;;
40515;SDS011;26216;53.724;9.898;2023-04-03T07:38:39;3.67;;;1.63;;
40515;SDS011;26216;53.724;9.898;2023-04-03T07:41:05;3.63;;;1.35;;
40515;SDS011;26216;53.724;9.898;2023-04-03T07:43:31;3.88;;;1.38;;
40515;SDS011;26216;53.724;9.898;2023-04-03T07:45:59;2.35;;;1.00;;
40515;SDS011;26216;53.724;9.898;2023-04-03T07:48:25;4.38;;;1.02;;
40515;SDS011;26216;53.724;9.898;2023-04-03T07:50:52;1.38;;;0.73;;
40515;SDS011;26216;53.724;9.898;2023-04-03T07:53:18;3.28;;;0.90;;
40515;SDS011;26216;53.724;9.898;2023-04-03T07:55:48;5.53;;;1.20;;
40515;SDS011;26216;53.724;9.898;2023-04-03T07:58:17;1.90;;;0.70;;
40515;SDS011;26216;53.724;9.898;2023-04-03T08:00:43;2.90;;;0.70;;
40515;SDS011;26216;53.724;9.898;2023-04-03T08:03:10;1.35;;;0.57;;
40515;SDS011;26216;53.724;9.898;2023-04-03T08:05:37;2.92;;;0.60;;
40515;SDS011;26216;53.724;9.898;2023-04-03T08:08:05;1.80;;;0.70;;
40515;SDS011;26216;53.724;9.898;2023-04-03T08:10:32;2.30;;;0.75;;
40515;SDS011;26216;53.724;9.898;2023-04-03T08:12:59;2.30;;;0.70;;
40515;SDS011;26216;53.724;9.898;2023-04-03T08:15:25;2.47;;;0.70;;
40515;SDS011;26216;53.724;9.898;2023-04-03T08:17:52;2.22;;;1.10;;
40515;SDS011;26216;53.724;9.898;2023-04-03T08:20:21;1.42;;;0.60;;
40515;SDS011;26216;53.724;9.898;2023-04-03T08:22:47;1.15;;;0.60;;
40515;SDS011;26216;53.724;9.898;2023-04-03T08:25:13;4.00;;;0.95;;
40515;SDS011;26216;53.724;9.898;2023-04-03T08:27:39;2.53;;;0.90;;
40515;SDS011;26216;53.724;9.898;2023-04-03T08:30:06;3.17;;;0.80;;
40515;SDS011;26216;53.724;9.898;2023-04-03T08:32:35;2.85;;;1.02;;
40515;SDS011;26216;53.724;9.898;2023-04-03T08:35:02;1.65;;;0.70;;
40515;SDS011;26216;53.724;9.898;2023-04-03T08:37:29;2.28;;;0.75;;
40515;SDS011;26216;53.724;9.898;2023-04-03T08:39:55;3.15;;;0.88;;
40515;SDS011;26216;53.724;9.898;2023-04-03T08:45:01;2.55;;;1.02;;
40515;SDS011;26216;53.724;9.898;2023-04-03T08:50:36;2.63;;;0.85;;
40515;SDS011;26216;53.724;9.898;2023-04-03T08:53:12;1.73;;;1.00;;
40515;SDS011;26216;53.724;9.898;2023-04-03T08:56:00;4.22;;;1.00;;
40515;SDS011;26216;53.724;9.898;2023-04-03T08:58:35;1.40;;;0.70;;
40515;SDS011;26216;53.724;9.898;2023-04-03T09:01:21;1.52;;;0.80;;
40515;SDS011;26216;53.724;9.898;2023-04-03T09:03:51;2.20;;;0.70;;
40515;SDS011;26216;53.724;9.898;2023-04-03T09:06:25;1.15;;;0.73;;
40515;SDS011;26216;53.724;9.898;2023-04-03T09:09:12;2.53;;;0.73;;
40515;SDS011;26216;53.724;9.898;2023-04-03T09:11:58;1.60;;;0.85;;
40515;SDS011;26216;53.724;9.898;2023-04-03T09:17:14;1.67;;;0.60;;
40515;SDS011;26216;53.724;9.898;2023-04-03T09:19:54;1.33;;;0.60;;
40515;SDS011;26216;53.724;9.898;2023-04-03T09:22:28;1.92;;;0.75;;
40515;SDS011;26216;53.724;9.898;2023-04-03T09:25:02;1.70;;;0.82;;
40515;SDS011;26216;53.724;9.898;2023-04-03T09:27:37;1.33;;;0.50;;
40515;SDS011;26216;53.724;9.898;2023-04-03T09:30:03;1.90;;;0.73;;
40515;SDS011;26216;53.724;9.898;2023-04-03T09:34:58;1.30;;;0.80;;
40515;SDS011;26216;53.724;9.898;2023-04-03T09:37:41;2.88;;;0.90;;
40515;SDS011;26216;53.724;9.898;2023-04-03T09:42:56;2.03;;;0.70;;
40515;SDS011;26216;53.724;9.898;2023-04-03T09:45:43;2.70;;;0.93;;
40515;SDS011;26216;53.724;9.898;2023-04-03T09:53:32;2.53;;;0.75;;
40515;SDS011;26216;53.724;9.898;2023-04-03T09:55:58;2.97;;;1.00;;
40515;SDS011;26216;53.724;9.898;2023-04-03T09:58:32;2.67;;;1.00;;
40515;SDS011;26216;53.724;9.898;2023-04-03T10:01:02;2.25;;;0.90;;
40515;SDS011;26216;53.724;9.898;2023-04-03T10:03:30;2.08;;;0.75;;
40515;SDS011;26216;53.724;9.898;2023-04-03T10:05:58;2.00;;;0.65;;
40515;SDS011;26216;53.724;9.898;2023-04-03T10:08:25;1.83;;;0.65;;
40515;SDS011;26216;53.724;9.898;2023-04-03T10:13:32;2.70;;;0.80;;
40515;SDS011;26216;53.724;9.898;2023-04-03T10:16:03;2.75;;;0.80;;
40515;SDS011;26216;53.724;9.898;2023-04-03T10:24:23;1.40;;;0.75;;
40515;SDS011;26216;53.724;9.898;2023-04-03T10:27:10;1.27;;;0.60;;
40515;SDS011;26216;53.724;9.898;2023-04-03T10:40:55;3.88;;;1.23;;
40515;SDS011;26216;53.724;9.898;2023-04-03T10:43:36;2.50;;;0.80;;
40515;SDS011;26216;53.724;9.898;2023-04-03T10:46:16;2.50;;;0.90;;
40515;SDS011;26216;53.724;9.898;2023-04-03T10:51:43;2.00;;;0.70;;
40515;SDS011;26216;53.724;9.898;2023-04-03T10:59:25;2.30;;;0.70;;
40515;SDS011;26216;53.724;9.898;2023-04-03T11:02:04;1.88;;;0.60;;
40515;SDS011;26216;53.724;9.898;2023-04-03T11:04:58;1.52;;;0.57;;
40515;SDS011;26216;53.724;9.898;2023-04-03T11:07:37;1.25;;;0.77;;
40515;SDS011;26216;53.724;9.898;2023-04-03T11:10:10;1.75;;;0.80;;
40515;SDS011;26216;53.724;9.898;2023-04-03T11:12:52;1.65;;;0.70;;
40515;SDS011;26216;53.724;9.898;2023-04-03T11:15:42;2.03;;;0.70;;
40515;SDS011;26216;53.724;9.898;2023-04-03T11:18:45;4.20;;;1.10;;
40515;SDS011;26216;53.724;9.898;2023-04-03T11:23:47;2.40;;;0.70;;
40515;SDS011;26216;53.724;9.898;2023-04-03T11:26:16;2.30;;;0.82;;
40515;SDS011;26216;53.724;9.898;2023-04-03T11:28:46;3.38;;;0.93;;
40515;SDS011;26216;53.724;9.898;2023-04-03T11:36:59;1.60;;;0.90;;
40515;SDS011;26216;53.724;9.898;2023-04-03T11:39:28;1.27;;;0.60;;
40515;SDS011;26216;53.724;9.898;2023-04-03T11:44:42;2.25;;;0.88;;
40515;SDS011;26216;53.724;9.898;2023-04-03T11:47:11;2.30;;;0.60;;
40515;SDS011;26216;53.724;9.898;2023-04-03T11:50:02;1.67;;;0.60;;
40515;SDS011;26216;53.724;9.898;2023-04-03T11:58:01;1.02;;;0.63;;
40515;SDS011;26216;53.724;9.898;2023-04-03T12:16:06;2.03;;;0.75;;
40515;SDS011;26216;53.724;9.898;2023-04-03T12:18:53;2.05;;;0.80;;
40515;SDS011;26216;53.724;9.898;2023-04-03T12:21:23;3.50;;;0.82;;
40515;SDS011;26216;53.724;9.898;2023-04-03T12:26:50;2.22;;;0.75;;
40515;SDS011;26216;53.724;9.898;2023-04-03T12:29:24;1.15;;;0.60;;
40515;SDS011;26216;53.724;9.898;2023-04-03T12:35:16;2.85;;;1.02;;
40515;SDS011;26216;53.724;9.898;2023-04-03T12:40:57;2.75;;;0.93;;
40515;SDS011;26216;53.724;9.898;2023-04-03T12:43:52;1.90;;;0.50;;
40515;SDS011;26216;53.724;9.898;2023-04-03T12:46:51;2.35;;;0.70;;
40515;SDS011;26216;53.724;9.898;2023-04-03T12:49:22;3.55;;;0.88;;
40515;SDS011;26216;53.724;9.898;2023-04-03T12:51:59;3.10;;;0.98;;
40515;SDS011;26216;53.724;9.898;2023-04-03T12:54:35;2.42;;;0.90;;
40515;SDS011;26216;53.724;9.898;2023-04-03T12:59:43;2.17;;;0.90;;
40515;SDS011;26216;53.724;9.898;2023-04-03T13:05:02;2.20;;;0.80;;
40515;SDS011;26216;53.724;9.898;2023-04-03T13:07:32;2.38;;;1.23;;
40515;SDS011;26216;53.724;9.898;2023-04-03T13:12:33;2.95;;;1.15;;
40515;SDS011;26216;53.724;9.898;2023-04-03T13:15:23;2.10;;;0.73;;
40515;SDS011;26216;53.724;9.898;2023-04-03T13:18:30;4.07;;;0.70;;
40515;SDS011;26216;53.724;9.898;2023-04-03T13:23:55;2.03;;;0.65;;
40515;SDS011;26216;53.724;9.898;2023-04-03T13:26:24;2.00;;;0.85;;
40515;SDS011;26216;53.724;9.898;2023-04-03T13:28:55;2.65;;;1.13;;
40515;SDS011;26216;53.724;9.898;2023-04-03T13:31:26;1.58;;;0.68;;
40515;SDS011;26216;53.724;9.898;2023-04-03T13:39:26;1.92;;;0.80;;
40515;SDS011;26216;53.724;9.898;2023-04-03T13:41:59;1.67;;;0.65;;
40515;SDS011;26216;53.724;9.898;2023-04-03T13:44:33;3.22;;;1.00;;
40515;SDS011;26216;53.724;9.898;2023-04-03T13:47:14;1.65;;;0.50;;
40515;SDS011;26216;53.724;9.898;2023-04-03T13:49:58;2.05;;;0.80;;
40515;SDS011;26216;53.724;9.898;2023-04-03T13:53:09;1.85;;;0.90;;
40515;SDS011;26216;53.724;9.898;2023-04-03T13:55:52;2.15;;;0.77;;
40515;SDS011;26216;53.724;9.898;2023-04-03T13:58:24;2.38;;;0.98;;
40515;SDS011;26216;53.724;9.898;2023-04-03T14:01:11;1.88;;;0.80;;
40515;SDS011;26216;53.724;9.898;2023-04-03T14:03:52;1.13;;;0.77;;
40515;SDS011;26216;53.724;9.898;2023-04-03T14:06:26;2.38;;;1.20;;
40515;SDS011;26216;53.724;9.898;2023-04-03T14:08:52;3.15;;;1.00;;
40515;SDS011;26216;53.724;9.898;2023-04-03T14:11:20;3.47;;;1.00;;
40515;SDS011;26216;53.724;9.898;2023-04-03T14:13:49;1.48;;;0.80;;
40515;SDS011;26216;53.724;9.898;2023-04-03T14:16:20;2.80;;;1.00;;
40515;SDS011;26216;53.724;9.898;2023-04-03T14:18:51;1.98;;;1.00;;
40515;SDS011;26216;53.724;9.898;2023-04-03T14:21:17;1.80;;;1.02;;
40515;SDS011;26216;53.724;9.898;2023-04-03T14:23:45;3.30;;;1.00;;
40515;SDS011;26216;53.724;9.898;2023-04-03T14:26:13;2.97;;;1.08;;
40515;SDS011;26216;53.724;9.898;2023-04-03T14:28:46;1.92;;;0.80;;
40515;SDS011;26216;53.724;9.898;2023-04-03T14:31:14;1.58;;;0.60;;
40515;SDS011;26216;53.724;9.898;2023-04-03T14:33:41;1.73;;;0.88;;
40515;SDS011;26216;53.724;9.898;2023-04-03T14:36:12;3.08;;;1.00;;
40515;SDS011;26216;53.724;9.898;2023-04-03T14:38:43;2.30;;;0.90;;
40515;SDS011;26216;53.724;9.898;2023-04-03T14:41:12;2.28;;;0.88;;
40515;SDS011;26216;53.724;9.898;2023-04-03T14:43:40;1.83;;;0.82;;
40515;SDS011;26216;53.724;9.898;2023-04-03T14:46:14;1.60;;;0.70;;
40515;SDS011;26216;53.724;9.898;2023-04-03T14:49:00;2.90;;;0.90;;
40515;SDS011;26216;53.724;9.898;2023-04-03T14:51:27;3.45;;;0.93;;
40515;SDS011;26216;53.724;9.898;2023-04-03T14:53:53;2.28;;;0.90;;
40515;SDS011;26216;53.724;9.898;2023-04-03T14:56:28;3.45;;;0.70;;
40515;SDS011;26216;53.724;9.898;2023-04-03T14:58:58;2.20;;;0.90;;
40515;SDS011;26216;53.724;9.898;2023-04-03T15:03:54;3.33;;;1.20;;
40515;SDS011;26216;53.724;9.898;2023-04-03T15:06:20;2.22;;;0.80;;
40515;SDS011;26216;53.724;9.898;2023-04-03T15:08:47;5.13;;;1.00;;
40515;SDS011;26216;53.724;9.898;2023-04-03T15:11:14;1.45;;;0.80;;
40515;SDS011;26216;53.724;9.898;2023-04-03T15:13:41;2.92;;;1.00;;
40515;SDS011;26216;53.724;9.898;2023-04-03T15:16:15;2.70;;;0.82;;
40515;SDS011;26216;53.724;9.898;2023-04-03T15:18:44;2.92;;;1.00;;
40515;SDS011;26216;53.724;9.898;2023-04-03T15:21:11;2.58;;;1.10;;
40515;SDS011;26216;53.724;9.898;2023-04-03T15:23:38;1.92;;;0.95;;
40515;SDS011;26216;53.724;9.898;2023-04-03T15:26:04;1.70;;;0.80;;
40515;SDS011;26216;53.724;9.898;2023-04-03T15:28:35;2.30;;;1.00;;
40515;SDS011;26216;53.724;9.898;2023-04-03T15:31:05;3.58;;;1.05;;
40515;SDS011;26216;53.724;9.898;2023-04-03T15:33:32;2.92;;;1.10;;
40515;SDS011;26216;53.724;9.898;2023-04-03T15:35:59;1.52;;;0.73;;
40515;SDS011;26216;53.724;9.898;2023-04-03T15:38:26;3.28;;;1.05;;
40515;SDS011;26216;53.724;9.898;2023-04-03T15:40:53;3.25;;;1.13;;
40515;SDS011;26216;53.724;9.898;2023-04-03T15:43:20;2.15;;;0.95;;
40515;SDS011;26216;53.724;9.898;2023-04-03T15:45:47;2.05;;;0.85;;
40515;SDS011;26216;53.724;9.898;2023-04-03T15:48:14;3.13;;;1.23;;
40515;SDS011;26216;53.724;9.898;2023-04-03T15:50:41;3.00;;;1.00;;
40515;SDS011;26216;53.724;9.898;2023-04-03T15:53:08;4.05;;;1.13;;
40515;SDS011;26216;53.724;9.898;2023-04-03T15:55:35;1.45;;;0.90;;
40515;SDS011;26216;53.724;9.898;2023-04-03T15:58:03;1.25;;;0.85;;
40515;SDS011;26216;53.724;9.898;2023-04-03T16:00:30;3.78;;;1.10;;
40515;SDS011;26216;53.724;9.898;2023-04-03T16:03:02;4.07;;;0.90;;
40515;SDS011;26216;53.724;9.898;2023-04-03T16:05:31;2.95;;;1.30;;
40515;SDS011;26216;53.724;9.898;2023-04-03T16:07:59;3.40;;;1.50;;
40515;SDS011;26216;53.724;9.898;2023-04-03T16:10:26;3.30;;;0.95;;
40515;SDS011;26216;53.724;9.898;2023-04-03T16:12:52;2.58;;;0.90;;
40515;SDS011;26216;53.724;9.898;2023-04-03T16:15:18;3.15;;;0.90;;
40515;SDS011;26216;53.724;9.898;2023-04-03T16:17:44;1.60;;;0.70;;
40515;SDS011;26216;53.724;9.898;2023-04-03T16:20:13;1.42;;;0.73;;
40515;SDS011;26216;53.724;9.898;2023-04-03T16:22:40;2.20;;;0.80;;
40515;SDS011;26216;53.724;9.898;2023-04-03T16:25:07;4.20;;;1.42;;
40515;SDS011;26216;53.724;9.898;2023-04-03T16:27:33;2.28;;;1.13;;
40515;SDS011;26216;53.724;9.898;2023-04-03T16:29:59;2.85;;;1.00;;
40515;SDS011;26216;53.724;9.898;2023-04-03T16:32:26;2.85;;;1.10;;
40515;SDS011;26216;53.724;9.898;2023-04-03T16:34:55;2.97;;;1.10;;
40515;SDS011;26216;53.724;9.898;2023-04-03T16:37:22;2.65;;;1.10;;
40515;SDS011;26216;53.724;9.898;2023-04-03T16:39:48;2.28;;;0.77;;
40515;SDS011;26216;53.724;9.898;2023-04-03T16:42:14;3.22;;;1.13;;
40515;SDS011;26216;53.724;9.898;2023-04-03T16:44:40;3.03;;;1.13;;
40515;SDS011;26216;53.724;9.898;2023-04-03T16:47:06;2.45;;;1.10;;
40515;SDS011;26216;53.724;9.898;2023-04-03T16:49:33;3.42;;;1.35;;
40515;SDS011;26216;53.724;9.898;2023-04-03T16:52:03;4.82;;;1.70;;
40515;SDS011;26216;53.724;9.898;2023-04-03T16:54:30;2.80;;;1.40;;
40515;SDS011;26216;53.724;9.898;2023-04-03T16:56:57;2.88;;;1.15;;